Time;durP1;ratioP1;P1;durP2;ratioP2;P2;SDS_P1;SDS_P2;PMS_P1;PMS_P2;Temp;Humidity;BMP_temperature;BMP_pressure;BME280_temperature;BME280_humidity;BME280_pressure;Samples;Min_cycle;Max_cycle;Signal;HPM_P1;HPM_P2
2021/01/10 00:02:25;;;;;;;;;;;;;;;-3.10;95.72;101404.94;6280896;22;19903;-75
2021/01/10 00:04:50;;;;;;;;;;;;;;;-3.09;95.71;101397.63;6254535;22;19903;-75
2021/01/10 00:07:15;;;;;;;;;;;;;;;-3.10;95.18;101402.22;6254436;22;19908;-76
2021/01/10 00:09:41;;;;;;;;;;;;;;;-3.11;95.12;101402.41;6228968;22;19932;-75
2021/01/10 00:12:06;;;;;;;;;;;;;;;-3.12;94.98;101401.56;6228958;22;19903;-75
2021/01/10 00:14:32;;;;;;;;;;;;;;;-3.14;94.56;101403.63;6229636;22;19904;-75
2021/01/10 00:16:57;;;;;;;;;;;;;;;-3.14;94.28;101395.47;6281152;22;20341;-75
2021/01/10 00:19:22;;;;;;;;;;;;;;;-3.17;94.47;101401.25;6254253;22;19903;-75
2021/01/10 00:21:48;;;;;;;;;;;;;;;-3.18;94.17;101400.41;6254728;22;19993;-75
2021/01/10 00:24:13;;;;;;;;;;;;;;;-3.21;94.12;101405.34;6229084;22;19903;-75
2021/01/10 00:26:38;;;;;;;;;;;;;;;-3.28;94.24;101401.69;6254233;22;19982;-74
2021/01/10 00:29:07;;;;;;;;;;;;;;;-3.40;94.46;101396.69;6254297;22;19911;-75
2021/01/10 00:31:34;;;;;;;;;;;;;;;-3.37;94.60;101400.91;6254130;22;19911;-75
2021/01/10 00:33:59;;;;;;;;;;;;;;;-3.42;94.57;101404.16;6254180;22;20232;-75
2021/01/10 00:36:35;;;;;;;;;;;;;;;-3.38;94.24;101404.63;6227511;22;19907;-75
2021/01/10 00:39:00;;;;;;;;;;;;;;;-3.41;94.08;101407.72;6229423;22;19930;-75
2021/01/10 00:41:25;;;;;;;;;;;;;;;-3.46;94.27;101405.53;6228579;22;19910;-75
2021/01/10 00:43:51;;;;;;;;;;;;;;;-3.46;94.18;101405.53;6281154;22;19911;-75
2021/01/10 00:46:16;;;;;;;;;;;;;;;-3.48;94.18;101401.31;6254148;22;19946;-75
2021/01/10 00:48:42;;;;;;;;;;;;;;;-3.55;94.32;101403.91;6254216;22;19907;-75
2021/01/10 00:51:13;;;;;;;;;;;;;;;-3.61;94.29;101408.19;6253601;22;19903;-75
2021/01/10 00:53:39;;;;;;;;;;;;;;;-3.68;95.08;101403.63;6281286;22;19903;-75
2021/01/10 00:56:05;;;;;;;;;;;;;;;-3.69;95.10;101410.94;6254349;22;19907;-75
2021/01/10 00:58:30;;;;;;;;;;;;;;;-3.70;95.48;101403.84;6228860;22;19910;-74
2021/01/10 01:00:56;;;;;;;;;;;;;;;-3.74;95.97;101412.50;6203315;22;19911;-75
2021/01/10 01:03:21;;;;;;;;;;;;;;;-3.76;96.72;101407.25;6254140;22;20213;-75
2021/01/10 01:05:47;;;;;;;;;;;;;;;-3.77;96.16;101410.16;6280575;22;19982;-75
2021/01/10 01:08:12;;;;;;;;;;;;;;;-3.77;96.59;101405.56;6253607;22;19907;-75
2021/01/10 01:10:38;;;;;;;;;;;;;;;-3.76;96.40;101403.69;6229176;22;19903;-75
2021/01/10 01:13:03;;;;;;;;;;;;;;;-3.74;96.38;101407.06;6253800;22;19973;-75
2021/01/10 01:15:29;;;;;;;;;;;;;;;-3.72;95.87;101405.03;6280771;22;19903;-75
2021/01/10 01:17:54;;;;;;;;;;;;;;;-3.75;96.00;101413.53;6253836;22;19914;-74
2021/01/10 01:20:19;;;;;;;;;;;;;;;-3.75;96.04;101421.69;6280776;22;19903;-75
2021/01/10 01:22:45;;;;;;;;;;;;;;;-3.74;96.79;101418.78;6253823;22;19903;-75
2021/01/10 01:25:12;;;;;;;;;;;;;;;-3.72;97.38;101424.88;6281035;22;19902;-75
2021/01/10 01:27:37;;;;;;;;;;;;;;;-3.69;97.64;101418.25;6281173;22;20400;-75
2021/01/10 01:30:03;;;;;;;;;;;;;;;-3.62;97.97;101416.53;6253550;22;19903;-74
2021/01/10 01:32:28;;;;;;;;;;;;;;;-3.60;98.29;101409.03;6253212;22;19903;-75
2021/01/10 01:34:54;;;;;;;;;;;;;;;-3.57;98.48;101414.09;6228800;22;19907;-74
2021/01/10 01:37:19;;;;;;;;;;;;;;;-3.57;98.14;101419.53;6252716;22;20217;-75
2021/01/10 01:39:45;;;;;;;;;;;;;;;-3.53;97.91;101420.88;6281002;22;19910;-74
2021/01/10 01:42:13;;;;;;;;;;;;;;;-3.53;98.03;101423.59;6254031;22;19903;-75
2021/01/10 01:44:38;;;;;;;;;;;;;;;-3.47;98.08;101422.88;6253854;22;19919;-75
2021/01/10 01:47:05;;;;;;;;;;;;;;;-3.41;97.57;101421.28;6280623;22;20317;-75
2021/01/10 01:49:30;;;;;;;;;;;;;;;-3.39;97.43;101420.09;6230826;22;19910;-75
2021/01/10 01:51:56;;;;;;;;;;;;;;;-3.40;97.55;101429.28;6255701;22;19904;-75
2021/01/10 01:54:22;;;;;;;;;;;;;;;-3.39;97.75;101427.41;6282663;22;19903;-75
2021/01/10 01:56:47;;;;;;;;;;;;;;;-3.39;97.72;101430.97;6256022;22;20324;-75
2021/01/10 01:59:12;;;;;;;;;;;;;;;-3.38;97.32;101423.66;6256199;22;19926;-75
2021/01/10 02:01:38;;;;;;;;;;;;;;;-3.35;97.29;101438.75;6254748;22;19979;-75
2021/01/10 02:04:12;;;;;;;;;;;;;;;-3.35;97.58;101436.03;6230725;22;19907;-75
2021/01/10 02:06:58;;;;;;;;;;;;;;;-3.34;97.87;101446.72;6282814;22;19903;-75
2021/01/10 02:09:23;;;;;;;;;;;;;;;-3.33;97.70;101445.69;6255852;22;20313;-75
2021/01/10 02:11:49;;;;;;;;;;;;;;;-3.32;97.45;101449.25;6230713;22;19905;-75
2021/01/10 02:14:16;;;;;;;;;;;;;;;-3.32;97.02;101449.25;6230500;22;19907;-75
2021/01/10 02:16:42;;;;;;;;;;;;;;;-3.34;96.76;101452.16;6230602;22;19982;-75
2021/01/10 02:19:09;;;;;;;;;;;;;;;-3.34;96.76;101456.72;6229996;22;20328;-75
2021/01/10 02:21:35;;;;;;;;;;;;;;;-3.39;96.77;101458.13;6205021;22;19910;-75
2021/01/10 02:24:01;;;;;;;;;;;;;;;-3.43;96.81;101461.38;6206003;22;19910;-75
2021/01/10 02:26:27;;;;;;;;;;;;;;;-3.48;96.56;101451.06;6230432;22;19953;-78
2021/01/10 02:28:53;;;;;;;;;;;;;;;-3.48;96.67;101458.34;6229973;22;19907;-75
2021/01/10 02:31:18;;;;;;;;;;;;;;;-3.51;96.52;101450.53;6255498;22;19991;-75
2021/01/10 02:33:48;;;;;;;;;;;;;;;-3.55;96.57;101455.50;6230184;22;19952;-75
2021/01/10 02:36:24;;;;;;;;;;;;;;;-3.56;97.08;101455.69;6228533;22;19907;-75
2021/01/10 02:38:53;;;;;;;;;;;;;;;-3.57;96.79;101451.25;6255967;22;19910;-75
2021/01/10 02:41:29;;;;;;;;;;;;;;;-3.59;96.85;101454.19;6230351;22;19937;-75
2021/01/10 02:44:13;;;;;;;;;;;;;;;-3.60;96.76;101447.88;6205331;22;19938;-75
2021/01/10 02:46:38;;;;;;;;;;;;;;;-3.64;96.55;101453.84;6254809;22;19910;-75
2021/01/10 02:49:04;;;;;;;;;;;;;;;-3.68;97.05;101453.34;6205261;22;19911;-75
2021/01/10 02:51:29;;;;;;;;;;;;;;;-3.71;97.05;101450.16;6230085;22;19910;-75
2021/01/10 02:53:54;;;;;;;;;;;;;;;-3.70;97.19;101451.88;6282165;22;19914;-74
2021/01/10 02:56:20;;;;;;;;;;;;;;;-3.69;97.33;101453.53;6282237;22;19903;-75
2021/01/10 02:58:45;;;;;;;;;;;;;;;-3.70;97.38;101446.44;6230624;22;19930;-75
2021/01/10 03:01:11;;;;;;;;;;;;;;;-3.70;97.61;101455.41;6254505;22;20325;-75
2021/01/10 03:03:36;;;;;;;;;;;;;;;-3.69;97.50;101448.94;6255383;22;19911;-75
2021/01/10 03:06:02;;;;;;;;;;;;;;;-3.70;97.99;101441.00;6282622;22;19907;-75
2021/01/10 03:08:27;;;;;;;;;;;;;;;-3.69;97.74;101453.53;6255152;22;19934;-74
2021/01/10 03:10:52;;;;;;;;;;;;;;;-3.70;97.73;101449.16;6254779;22;19949;-75
2021/01/10 03:13:18;;;;;;;;;;;;;;;-3.68;97.79;101447.06;6282687;22;20312;-74
2021/01/10 03:15:45;;;;;;;;;;;;;;;-3.67;97.76;101448.78;6230289;22;19910;-74
2021/01/10 03:18:17;;;;;;;;;;;;;;;-3.67;97.57;101443.34;6254829;22;19903;-75
2021/01/10 03:20:42;;;;;;;;;;;;;;;-3.65;97.38;101444.00;6204608;22;19903;-75
2021/01/10 03:23:08;;;;;;;;;;;;;;;-3.71;97.55;101428.44;6230229;22;19910;-74
2021/01/10 03:25:33;;;;;;;;;;;;;;;-3.70;97.44;101430.13;6254481;22;19903;-74
2021/01/10 03:27:58;;;;;;;;;;;;;;;-3.69;96.80;101432.66;6204545;22;19907;-74
2021/01/10 03:30:24;;;;;;;;;;;;;;;-3.69;96.30;101431.81;6282222;22;19907;-75
2021/01/10 03:32:49;;;;;;;;;;;;;;;-3.71;96.15;101433.88;6254393;22;19903;-75
2021/01/10 03:35:15;;;;;;;;;;;;;;;-3.75;96.12;101427.94;6228794;22;19903;-75
2021/01/10 03:37:41;;;;;;;;;;;;;;;-3.82;96.60;101419.69;6281499;22;19910;-75
2021/01/10 03:40:07;;;;;;;;;;;;;;;-3.83;96.94;101434.25;6229788;22;19903;-75
2021/01/10 03:42:32;;;;;;;;;;;;;;;-3.88;97.06;101422.25;6229266;22;19911;-75
2021/01/10 03:44:57;;;;;;;;;;;;;;;-3.88;96.79;101425.78;6254791;22;19907;-75
2021/01/10 03:47:23;;;;;;;;;;;;;;;-3.92;97.00;101423.63;6254470;22;19938;-74
2021/01/10 03:49:48;;;;;;;;;;;;;;;-3.90;97.49;101433.28;6281270;22;19903;-77
2021/01/10 03:52:13;;;;;;;;;;;;;;;-3.92;97.15;101427.19;6254791;22;19907;-74
2021/01/10 03:54:39;;;;;;;;;;;;;;;-3.92;97.28;101420.91;6255248;22;20367;-74
2021/01/10 03:57:04;;;;;;;;;;;;;;;-3.93;97.11;101411.06;6204416;22;19910;-74
2021/01/10 03:59:29;;;;;;;;;;;;;;;-3.96;97.16;101412.25;6203988;22;19982;-74
2021/01/10 04:01:55;;;;;;;;;;;;;;;-3.93;97.07;101414.66;6229427;22;19922;-74
2021/01/10 04:04:20;;;;;;;;;;;;;;;-3.94;96.33;101410.22;6204455;22;19950;-74
2021/01/10 04:06:49;;;;;;;;;;;;;;;-3.89;96.18;101410.53;6281357;22;19903;-75
2021/01/10 04:09:19;;;;;;;;;;;;;;;-3.91;95.83;101417.16;6203911;22;19982;-76
2021/01/10 04:11:44;;;;;;;;;;;;;;;-3.91;95.94;101411.75;6229941;22;19907;-75
2021/01/10 04:14:10;;;;;;;;;;;;;;;-3.90;95.88;101425.16;6229032;22;19909;-75
2021/01/10 04:16:35;;;;;;;;;;;;;;;-3.92;95.56;101419.03;6281095;22;19941;-75
2021/01/10 04:19:00;;;;;;;;;;;;;;;-3.98;96.09;101432.44;6281902;22;19903;-75
2021/01/10 04:21:35;;;;;;;;;;;;;;;-4.05;96.53;101426.91;6203650;22;19910;-75
2021/01/10 04:24:01;;;;;;;;;;;;;;;-4.08;96.74;101422.66;6229283;22;19938;-75
2021/01/10 04:26:27;;;;;;;;;;;;;;;-4.06;96.65;101428.78;6281676;22;20232;-75
2021/01/10 04:28:52;;;;;;;;;;;;;;;-4.11;96.93;101433.88;6254851;22;19956;-75
2021/01/10 04:31:18;;;;;;;;;;;;;;;-4.13;97.19;101433.19;6228224;22;19911;-75
2021/01/10 04:33:43;;;;;;;;;;;;;;;-4.11;97.11;101433.03;6229213;22;19910;-75
2021/01/10 04:36:08;;;;;;;;;;;;;;;-4.13;97.12;101435.06;6253160;22;19949;-75
2021/01/10 04:38:34;;;;;;;;;;;;;;;-4.13;97.05;101429.63;6230191;22;19985;-75
2021/01/10 04:40:59;;;;;;;;;;;;;;;-4.15;97.10;101432.53;6229758;22;19941;-75
2021/01/10 04:43:25;;;;;;;;;;;;;;;-4.16;96.60;101428.13;6228774;22;19918;-75
2021/01/10 04:45:50;;;;;;;;;;;;;;;-4.19;96.68;101433.91;6228663;22;19910;-75
2021/01/10 04:48:19;;;;;;;;;;;;;;;-4.20;96.76;101423.25;6203869;22;20308;-76
2021/01/10 04:50:47;;;;;;;;;;;;;;;-4.24;96.93;101422.72;6230355;22;19947;-75
2021/01/10 04:53:12;;;;;;;;;;;;;;;-4.25;96.93;101420.19;6228942;22;20347;-75
2021/01/10 04:55:38;;;;;;;;;;;;;;;-4.25;97.02;101421.03;6228580;22;19903;-75
2021/01/10 04:58:06;;;;;;;;;;;;;;;-4.24;96.95;101421.88;6229602;22;19948;-75
2021/01/10 05:00:32;;;;;;;;;;;;;;;-4.24;97.25;101411.88;6281230;22;19982;-75
2021/01/10 05:03:16;;;;;;;;;;;;;;;-4.25;97.36;101414.78;6280785;22;19914;-75
2021/01/10 05:05:41;;;;;;;;;;;;;;;-4.24;97.34;101420.00;6253722;22;19931;-75
2021/01/10 05:08:08;;;;;;;;;;;;;;;-4.23;97.22;101419.00;6229036;22;20263;-75
2021/01/10 05:10:33;;;;;;;;;;;;;;;-4.22;97.23;101425.28;6253999;22;19903;-75
2021/01/10 05:12:59;;;;;;;;;;;;;;;-4.23;97.10;101419.00;6253845;22;19910;-75
2021/01/10 05:15:24;;;;;;;;;;;;;;;-4.27;97.18;101423.06;6228938;22;20232;-75
2021/01/10 05:17:53;;;;;;;;;;;;;;;-4.27;97.40;101421.19;6253587;22;20339;-75
2021/01/10 05:20:19;;;;;;;;;;;;;;;-4.24;97.09;101424.59;6253453;22;19911;-75
2021/01/10 05:22:44;;;;;;;;;;;;;;;-4.25;97.27;101420.19;6253340;22;20324;-75
2021/01/10 05:25:13;;;;;;;;;;;;;;;-4.24;97.28;101420.00;6203933;22;19903;-75
2021/01/10 05:27:38;;;;;;;;;;;;;;;-4.20;96.62;101423.25;6228127;22;19921;-75
2021/01/10 05:30:04;;;;;;;;;;;;;;;-4.21;96.07;101427.78;6203963;22;19934;-75
2021/01/10 05:32:30;;;;;;;;;;;;;;;-4.25;96.45;101431.03;6253609;22;19956;-75
2021/01/10 05:34:59;;;;;;;;;;;;;;;-4.33;97.06;101424.63;6228318;22;19947;-75
2021/01/10 05:37:25;;;;;;;;;;;;;;;-4.30;96.75;101428.84;6252836;22;19914;-75
2021/01/10 05:39:50;;;;;;;;;;;;;;;-4.29;96.48;101430.53;6281104;22;19982;-75
2021/01/10 05:42:15;;;;;;;;;;;;;;;-4.25;95.88;101434.59;6280696;22;19903;-75
2021/01/10 05:44:44;;;;;;;;;;;;;;;-4.31;95.74;101433.44;6253598;22;19942;-75
2021/01/10 05:47:13;;;;;;;;;;;;;;;-4.26;95.50;101435.63;6280915;22;19952;-75
2021/01/10 05:49:45;;;;;;;;;;;;;;;-4.25;95.42;101436.47;6253702;22;19903;-75
2021/01/10 05:52:10;;;;;;;;;;;;;;;-4.36;95.50;101433.09;6203578;22;19903;-75
2021/01/10 05:54:36;;;;;;;;;;;;;;;-4.36;95.31;101441.22;6253867;22;19911;-75
2021/01/10 05:57:02;;;;;;;;;;;;;;;-4.42;95.22;101439.22;6281370;22;19903;-75
2021/01/10 05:59:29;;;;;;;;;;;;;;;-4.44;95.16;101443.97;6228204;22;19904;-74
2021/01/10 06:01:54;;;;;;;;;;;;;;;-4.44;95.48;101446.69;6280041;22;19918;-75
2021/01/10 06:04:23;;;;;;;;;;;;;;;-4.42;95.20;101450.06;6253574;22;19903;-75
2021/01/10 06:06:48;;;;;;;;;;;;;;;-4.49;95.24;101454.47;6253475;22;19907;-75
2021/01/10 06:09:14;;;;;;;;;;;;;;;-4.49;95.02;101459.91;6253250;22;19934;-75
2021/01/10 06:11:39;;;;;;;;;;;;;;;-4.53;95.06;101453.97;6280536;22;19910;-74
2021/01/10 06:14:04;;;;;;;;;;;;;;;-4.57;95.21;101451.78;6280835;22;19942;-75
2021/01/10 06:16:31;;;;;;;;;;;;;;;-4.59;95.17;101456.56;6253042;22;19954;-75
2021/01/10 06:18:57;;;;;;;;;;;;;;;-4.59;95.28;101459.25;6253472;22;19931;-75
2021/01/10 06:21:23;;;;;;;;;;;;;;;-4.59;95.14;101453.84;6228547;22;19925;-75
2021/01/10 06:23:49;;;;;;;;;;;;;;;-4.57;94.98;101459.91;6253040;22;19926;-75
2021/01/10 06:26:19;;;;;;;;;;;;;;;-4.60;94.85;101457.53;6228202;22;19907;-75
2021/01/10 06:29:02;;;;;;;;;;;;;;;-4.63;95.07;101453.31;6281006;22;19919;-75
2021/01/10 06:31:28;;;;;;;;;;;;;;;-4.64;94.83;101456.22;6228245;22;19973;-74
2021/01/10 06:33:59;;;;;;;;;;;;;;;-4.67;94.78;101459.28;6280981;22;19907;-75
2021/01/10 06:36:25;;;;;;;;;;;;;;;-4.74;94.85;101456.38;6204333;22;19930;-75
2021/01/10 06:38:51;;;;;;;;;;;;;;;-4.74;94.73;101454.50;6230460;22;19903;-74
2021/01/10 06:41:28;;;;;;;;;;;;;;;-4.72;94.76;101460.59;6255284;22;19908;-74
2021/01/10 06:44:00;;;;;;;;;;;;;;;-4.76;94.90;101456.56;6254638;22;19911;-75
2021/01/10 06:46:25;;;;;;;;;;;;;;;-4.80;94.67;101467.91;6204682;22;20336;-74
2021/01/10 06:48:50;;;;;;;;;;;;;;;-4.84;94.80;101470.13;6229927;22;19907;-75
2021/01/10 06:51:16;;;;;;;;;;;;;;;-4.80;94.76;101466.03;6254893;22;19903;-75
2021/01/10 06:53:41;;;;;;;;;;;;;;;-4.86;94.94;101477.56;6255495;22;19911;-75
2021/01/10 06:56:07;;;;;;;;;;;;;;;-4.87;94.96;101469.63;6255789;22;19973;-75
2021/01/10 06:58:32;;;;;;;;;;;;;;;-4.88;94.94;101471.44;6204724;22;19926;-74
2021/01/10 07:00:58;;;;;;;;;;;;;;;-4.90;95.02;101476.22;6282019;22;20287;-75
2021/01/10 07:03:23;;;;;;;;;;;;;;;-4.93;95.48;101473.84;6282468;22;19910;-75
2021/01/10 07:06:08;;;;;;;;;;;;;;;-4.89;95.10;101477.06;6229724;22;19903;-75
2021/01/10 07:08:37;;;;;;;;;;;;;;;-4.87;95.14;101475.88;6255679;22;19986;-75
2021/01/10 07:11:21;;;;;;;;;;;;;;;-4.88;95.31;101478.75;6275479;22;19903;-75
2021/01/10 07:13:56;;;;;;;;;;;;;;;-4.90;95.20;101480.75;6282306;22;19985;-75
2021/01/10 07:16:24;;;;;;;;;;;;;;;-4.90;95.03;101470.78;6281473;22;19903;-74
2021/01/10 07:18:49;;;;;;;;;;;;;;;-4.95;95.24;101473.16;6254853;22;19978;-75
2021/01/10 07:21:33;;;;;;;;;;;;;;;-4.93;95.13;101465.72;6282147;22;19907;-74
2021/01/10 07:24:14;;;;;;;;;;;;;;;-4.92;95.03;101472.81;6282105;22;19907;-74
2021/01/10 07:26:40;;;;;;;;;;;;;;;-4.96;95.22;101480.44;6254889;22;19953;-74
2021/01/10 07:29:24;;;;;;;;;;;;;;;-4.86;94.53;101474.84;6229559;22;19978;-75
2021/01/10 07:32:06;;;;;;;;;;;;;;;-4.94;94.72;101474.84;6228168;22;19949;-76
2021/01/10 07:34:34;;;;;;;;;;;;;;;-4.98;94.71;101481.63;6205553;22;19910;-74
2021/01/10 07:37:00;;;;;;;;;;;;;;;-4.97;94.66;101481.44;6228579;22;19907;-75
2021/01/10 07:39:29;;;;;;;;;;;;;;;-4.91;94.49;101489.91;6229603;22;20231;-74
2021/01/10 07:42:13;;;;;;;;;;;;;;;-4.94;94.37;101488.38;6229957;22;19953;-75
2021/01/10 07:44:45;;;;;;;;;;;;;;;-4.96;94.45;101493.13;6254078;22;19911;-75
2021/01/10 07:47:10;;;;;;;;;;;;;;;-4.98;94.56;101497.88;6281166;22;19924;-75
2021/01/10 07:49:47;;;;;;;;;;;;;;;-4.96;94.65;101494.00;6229055;22;20333;-75
2021/01/10 07:52:12;;;;;;;;;;;;;;;-4.95;94.51;101505.69;6229998;22;19903;-75
2021/01/10 07:54:51;;;;;;;;;;;;;;;-4.97;94.67;101508.53;6229152;22;19909;-75
2021/01/10 07:57:26;;;;;;;;;;;;;;;-5.03;95.01;101511.91;6229591;22;20304;-75
2021/01/10 08:00:04;;;;;;;;;;;;;;;-5.04;95.38;101512.06;6229629;22;19910;-75
2021/01/10 08:02:48;;;;;;;;;;;;;;;-5.03;95.16;101516.50;6254192;22;19903;-75
2021/01/10 08:05:14;;;;;;;;;;;;;;;-5.03;95.48;101511.09;6229034;22;20239;-75
2021/01/10 08:07:53;;;;;;;;;;;;;;;-4.96;95.42;101514.78;6228805;22;19930;-75
2021/01/10 08:10:19;;;;;;;;;;;;;;;-5.01;95.32;101512.63;6254958;22;20374;-74
2021/01/10 08:12:44;;;;;;;;;;;;;;;-4.96;95.26;101517.50;6204184;22;19907;-75
2021/01/10 08:15:11;;;;;;;;;;;;;;;-5.00;94.97;101521.59;6229144;22;20313;-74
2021/01/10 08:17:37;;;;;;;;;;;;;;;-5.01;95.00;101519.91;6254802;22;19903;-75
2021/01/10 08:20:03;;;;;;;;;;;;;;;-5.03;94.98;101522.75;6281366;22;19914;-75
2021/01/10 08:22:29;;;;;;;;;;;;;;;-4.99;94.99;101520.56;6254508;22;19961;-75
2021/01/10 08:24:54;;;;;;;;;;;;;;;-4.96;94.99;101526.50;6254645;22;19903;-75
2021/01/10 08:27:19;;;;;;;;;;;;;;;-4.96;95.06;101534.63;6229490;22;20327;-75
2021/01/10 08:29:45;;;;;;;;;;;;;;;-4.95;95.11;101538.19;6254428;22;19948;-75
2021/01/10 08:32:11;;;;;;;;;;;;;;;-4.96;95.65;101536.47;6253873;22;19904;-75
2021/01/10 08:34:49;;;;;;;;;;;;;;;-4.89;95.47;101536.66;6254297;22;19910;-75
2021/01/10 08:37:14;;;;;;;;;;;;;;;-4.90;95.67;101535.84;6253509;22;19910;-73
2021/01/10 08:39:44;;;;;;;;;;;;;;;-4.85;95.92;101538.84;6281176;22;19981;-75
2021/01/10 08:46:25;;;;;;;;;;;;;;;-4.71;97.02;101545.47;6193548;23;19918;-76
2021/01/10 09:02:45;;;;;;;;;;;;;;;;;;;;;
2021/01/10 09:05:57;;;;;;;;;;;;;;;-3.96;96.69;101558.81;6218142;23;19903;-76
2021/01/10 09:09:11;;;;;;;;;;;;;;;;;;;;;
2021/01/10 09:12:17;;;;;;;;;;;;;;;-3.72;96.34;101562.50;6097905;23;20357;-76
2021/01/10 09:16:03;;;;;;;;;;;;;;;;;;;;;
2021/01/10 09:22:11;;;;;;;;;;;;;;;-3.32;97.43;101560.63;6040194;23;19953;-76
2021/01/10 09:36:46;;;;;;;;;;;;;;;;;;;;;
2021/01/10 09:43:47;;;;;;;;;;;;;;;;;;;;;
2021/01/10 10:09:31;;;;;;;;;;;;;;;;;;;;;
2021/01/10 10:19:39;;;;;;;;;;;;;;;-0.85;94.69;101599.81;5893639;24;19907;-77
2021/01/10 10:25:56;;;;;;;;;;;;;;;-0.57;94.38;101607.25;5894806;24;20354;-78
2021/01/10 10:28:26;;;;;;;;;;;;;;;-0.49;94.30;101601.69;5848891;24;20082;-76
2021/01/10 10:42:07;;;;;;;;;;;;;;;-0.02;95.08;101611.16;5901494;24;19908;-76
2021/01/10 10:56:26;;;;;;;;;;;;;;;;;;;;;
2021/01/10 11:03:21;;;;;;;;;;;;;;;0.68;96.15;101600.28;5929151;24;20033;-74
2021/01/10 11:09:46;;;;;;;;;;;;;;;1.00;97.24;101606.94;5903914;24;19912;-74
2021/01/10 11:12:57;;;;;;;;;;;;;;;1.13;96.26;101596.06;5930279;24;19908;-74
2021/01/10 11:15:42;;;;;;;;;;;;;;;1.28;95.86;101593.13;5929510;24;19956;-73
2021/01/10 11:18:11;;;;;;;;;;;;;;;1.34;95.79;101586.88;5906197;24;19907;-73
2021/01/10 11:20:42;;;;;;;;;;;;;;;1.43;95.43;101585.63;5928596;24;19911;-74
2021/01/10 11:52:39;;;;;;;;;;;;;;;;;;;;;
2021/01/10 11:55:46;;;;;;;;;;;;;;;;;;;;;
2021/01/10 12:02:41;;;;;;;;;;;;;;;;;;;;;
2021/01/10 12:09:10;;;;;;;;;;;;;;;1.97;93.10;101537.19;6043663;23;19929;-73
2021/01/10 12:12:11;;;;;;;;;;;;;;;1.99;93.85;101532.34;6070049;23;19909;-74
2021/01/10 13:32:27;;;;;;;;;;;;;;;2.63;89.30;101465.75;5952341;24;19925;-76
2021/01/10 13:35:30;;;;;;;;;;;;;;;2.63;88.67;101456.69;5946004;24;19919;-76
2021/01/10 13:38:36;;;;;;;;;;;;;;;2.61;90.01;101451.41;5949161;23;19954;-75
2021/01/10 13:41:09;;;;;;;;;;;;;;;2.64;89.23;101455.59;6113008;23;19910;-75
2021/01/10 13:43:47;;;;;;;;;;;;;;;2.65;89.50;101452.66;6138626;23;20297;-78
2021/01/10 13:46:15;;;;;;;;;;;;;;;2.62;89.40;101452.25;6163700;23;19908;-73
2021/01/10 13:51:58;;;;;;;;;;;;;;;2.72;88.72;101460.84;6187149;23;19907;-75
2021/01/10 13:54:38;;;;;;;;;;;;;;;2.76;89.20;101462.09;6203223;23;19910;-75
2021/01/10 13:57:25;;;;;;;;;;;;;;;2.77;88.27;101461.03;6175920;23;20278;-75
2021/01/10 14:00:32;;;;;;;;;;;;;;;2.76;88.12;101459.34;6191864;23;20232;-75
2021/01/10 14:03:29;;;;;;;;;;;;;;;2.78;88.25;101450.88;6213444;23;19990;-75
2021/01/10 14:06:32;;;;;;;;;;;;;;;2.77;88.25;101450.06;6202675;23;19910;-75
2021/01/10 14:09:32;;;;;;;;;;;;;;;2.78;87.92;101457.22;6132771;23;19913;-75
2021/01/10 14:12:32;;;;;;;;;;;;;;;2.80;87.73;101449.63;6123298;23;20373;-75
2021/01/10 14:15:31;;;;;;;;;;;;;;;;;;;;;
2021/01/10 14:21:39;;;;;;;;;;;;;;;2.84;87.22;101448.13;6132249;23;19987;-74
2021/01/10 14:24:20;;;;;;;;;;;;;;;2.86;87.28;101456.97;6158819;23;19928;-74
2021/01/10 14:26:49;;;;;;;;;;;;;;;2.80;87.33;101452.34;6132523;23;19905;-75
2021/01/10 14:29:50;;;;;;;;;;;;;;;;;;;;;
2021/01/10 14:32:47;;;;;;;;;;;;;;;2.78;87.47;101459.97;6149667;23;20313;-75
2021/01/10 14:35:27;;;;;;;;;;;;;;;2.72;87.91;101446.28;6150141;23;19983;-75
2021/01/10 14:38:23;;;;;;;;;;;;;;;2.67;88.16;101460.66;6131692;23;19983;-75
2021/01/10 14:40:55;;;;;;;;;;;;;;;2.65;88.19;101460.06;6119823;23;19935;-75
2021/01/10 14:43:32;;;;;;;;;;;;;;;2.60;88.19;101466.19;6168015;23;19928;-74
2021/01/10 14:46:03;;;;;;;;;;;;;;;2.58;89.04;101464.72;6205945;22;19942;-75
2021/01/10 14:48:37;;;;;;;;;;;;;;;2.55;88.70;101448.69;6168754;23;19908;-75
2021/01/10 14:51:23;;;;;;;;;;;;;;;2.53;89.21;101459.88;6174403;23;19974;-75
2021/01/10 14:54:10;;;;;;;;;;;;;;;;;;;;;
2021/01/10 14:57:14;;;;;;;;;;;;;;;2.47;89.10;101468.97;6170786;23;20014;-75
2021/01/10 14:59:53;;;;;;;;;;;;;;;2.44;89.30;101472.16;6164728;23;19905;-74
2021/01/10 15:05:23;;;;;;;;;;;;;;;2.41;89.46;101469.84;6162945;23;19931;-75
2021/01/10 15:07:58;;;;;;;;;;;;;;;2.43;89.63;101467.72;6162500;23;19908;-75
2021/01/10 15:11:13;;;;;;;;;;;;;;;2.41;89.83;101467.94;6187700;23;20801;-74
2021/01/10 15:14:18;;;;;;;;;;;;;;;;;;;;;
2021/01/10 15:17:01;;;;;;;;;;;;;;;2.36;89.79;101470.47;6183155;23;19912;-75
2021/01/10 15:19:47;;;;;;;;;;;;;;;2.37;90.06;101474.94;6157621;23;20245;-74
2021/01/10 15:22:47;;;;;;;;;;;;;;;2.36;89.81;101475.13;6197185;23;20253;-75
2021/01/10 15:25:39;;;;;;;;;;;;;;;2.34;89.87;101472.63;6195890;23;20004;-75
2021/01/10 15:28:23;;;;;;;;;;;;;;;2.33;90.30;101476.41;6167921;23;19908;-75
2021/01/10 15:30:52;;;;;;;;;;;;;;;2.33;90.39;101475.56;6168445;23;19904;-75
2021/01/10 15:33:43;;;;;;;;;;;;;;;2.32;90.17;101463.75;6170492;23;19939;-75
2021/01/10 15:36:12;;;;;;;;;;;;;;;2.31;90.58;101472.19;6150200;23;19912;-74
2021/01/10 15:38:49;;;;;;;;;;;;;;;2.29;90.71;101474.31;6165594;23;19971;-75
2021/01/10 15:41:24;;;;;;;;;;;;;;;2.25;90.92;101471.16;6199651;23;19978;-75
2021/01/10 15:47:37;;;;;;;;;;;;;;;2.20;91.69;101463.59;6201703;23;20328;-75
2021/01/10 15:50:20;;;;;;;;;;;;;;;2.18;91.61;101470.34;6226110;23;20355;-75
2021/01/10 15:52:48;;;;;;;;;;;;;;;2.16;92.11;101466.97;6200598;23;19907;-75
2021/01/10 15:55:32;;;;;;;;;;;;;;;2.11;91.46;101470.34;6201158;23;19952;-75
2021/01/10 16:01:45;;;;;;;;;;;;;;;2.04;91.74;101474.19;6215345;23;19903;-74
2021/01/10 16:04:35;;;;;;;;;;;;;;;1.99;92.26;101470.16;6196908;23;20396;-75
2021/01/10 16:07:01;;;;;;;;;;;;;;;1.95;92.41;101474.41;6222469;23;19903;-74
2021/01/10 16:10:07;;;;;;;;;;;;;;;1.91;92.75;101466.81;6206643;23;20276;-75
2021/01/10 16:12:55;;;;;;;;;;;;;;;1.85;92.95;101465.78;6225104;23;20297;-75
2021/01/10 16:15:28;;;;;;;;;;;;;;;1.81;93.15;101463.66;6184715;23;19957;-75
2021/01/10 16:18:35;;;;;;;;;;;;;;;1.75;93.13;101470.81;6083033;23;19984;-75
2021/01/10 16:21:01;;;;;;;;;;;;;;;1.70;93.26;101466.00;6080940;23;19943;-75
2021/01/10 16:23:31;;;;;;;;;;;;;;;1.66;93.35;101472.09;6074947;23;19969;-75
2021/01/10 16:25:59;;;;;;;;;;;;;;;1.61;93.48;101466.41;6182752;23;19909;-75
2021/01/10 16:28:24;;;;;;;;;;;;;;;1.55;93.50;101458.00;6198548;23;19907;-75
2021/01/10 16:30:50;;;;;;;;;;;;;;;1.51;93.64;101467.69;6224540;23;20237;-74
2021/01/10 16:33:15;;;;;;;;;;;;;;;1.46;93.72;101464.75;6173781;23;19938;-73
2021/01/10 16:35:47;;;;;;;;;;;;;;;1.38;93.94;101461.38;6243879;22;20252;-75
2021/01/10 16:38:29;;;;;;;;;;;;;;;1.34;93.98;101460.97;6229247;22;19903;-75
2021/01/10 16:41:24;;;;;;;;;;;;;;;1.30;93.96;101465.16;6212970;22;19903;-75
2021/01/10 16:44:22;;;;;;;;;;;;;;;1.23;94.09;101475.28;6255298;22;19929;-75
2021/01/10 16:47:24;;;;;;;;;;;;;;;;;;;;;
2021/01/10 16:50:24;;;;;;;;;;;;;;;1.08;93.95;101478.16;6216564;22;19935;-75
2021/01/10 16:53:42;;;;;;;;;;;;;;;;;;;;;
2021/01/10 16:56:29;;;;;;;;;;;;;;;0.96;94.23;101483.41;6225926;22;20236;-75
2021/01/10 16:59:40;;;;;;;;;;;;;;;0.93;94.07;101486.56;6235780;22;19903;-75
2021/01/10 17:02:19;;;;;;;;;;;;;;;0.88;94.23;101489.06;6177734;23;19910;-75
2021/01/10 17:05:15;;;;;;;;;;;;;;;0.81;93.93;101488.22;6198712;23;19903;-75
2021/01/10 17:10:58;;;;;;;;;;;;;;;0.71;94.05;101485.03;6139316;23;19924;-74
2021/01/10 17:13:38;;;;;;;;;;;;;;;0.63;93.84;101484.16;6186656;23;19908;-75
2021/01/10 17:16:28;;;;;;;;;;;;;;;0.57;93.71;101495.91;6171930;23;20261;-75
2021/01/10 17:19:04;;;;;;;;;;;;;;;0.52;93.83;101490.19;6217629;23;19934;-75
2021/01/10 17:21:32;;;;;;;;;;;;;;;0.46;93.69;101492.91;6191854;23;20321;-75
2021/01/10 17:24:12;;;;;;;;;;;;;;;0.41;93.76;101491.63;6192141;23;19931;-75
2021/01/10 17:26:43;;;;;;;;;;;;;;;0.37;93.74;101490.34;6143853;23;19903;-75
2021/01/10 17:29:29;;;;;;;;;;;;;;;0.32;93.74;101483.81;6167372;23;19979;-75